Time;durP1;ratioP1;P1;durP2;ratioP2;P2;SDS_P1;SDS_P2;PMS_P1;PMS_P2;Temp;Humidity;BMP_temperature;BMP_pressure;BME280_temperature;BME280_humidity;BME280_pressure;Samples;Min_cycle;Max_cycle;Signal;HPM_P1;HPM_P2
2022/05/05 00:01:37;;;;;;;17.20;15.03;;;10.40;99.90;;;;;;4933632;29;20440;-71
2022/05/05 00:04:03;;;;;;;19.37;15.30;;;10.40;99.90;;;;;;4934250;29;20836;-71
2022/05/05 00:06:28;;;;;;;20.40;15.83;;;10.40;99.90;;;;;;4934091;29;20211;-70
2022/05/05 00:08:54;;;;;;;17.30;15.50;;;10.50;99.90;;;;;;4935311;29;20189;-71
2022/05/05 00:16:51;;;;;;;16.70;14.90;;;10.50;99.90;;;;;;4937689;29;20500;-71
2022/05/05 00:19:17;;;;;;;19.60;16.33;;;10.60;99.90;;;;;;4937481;29;20449;-71
2022/05/05 00:21:42;;;;;;;19.10;16.73;;;10.60;99.90;;;;;;4937059;29;20439;-71
2022/05/05 00:24:08;;;;;;;20.60;16.93;;;10.70;99.90;;;;;;4937446;29;20180;-71
2022/05/05 00:26:34;;;;;;;20.13;16.07;;;10.70;99.90;;;;;;4937487;29;20180;-71
2022/05/05 00:29:00;;;;;;;20.23;16.30;;;10.70;99.90;;;;;;4937593;29;20852;-70
2022/05/05 00:31:26;;;;;;;21.87;16.83;;;10.70;99.90;;;;;;4937044;29;20455;-70
2022/05/05 00:33:51;;;;;;;20.50;17.73;;;10.60;99.90;;;;;;4937531;29;20189;-71
2022/05/05 00:36:17;;;;;;;19.10;16.37;;;10.60;99.90;;;;;;4937300;29;20236;-73
2022/05/05 00:38:43;;;;;;;20.37;16.77;;;10.60;99.90;;;;;;4937052;29;20181;-71
2022/05/05 00:41:08;;;;;;;21.53;17.43;;;10.60;99.90;;;;;;4936935;29;20229;-71
2022/05/05 00:43:35;;;;;;;27.17;17.50;;;10.50;99.90;;;;;;4937021;29;20180;-74
2022/05/05 00:46:02;;;;;;;20.10;16.30;;;10.50;99.90;;;;;;4937152;29;20220;-72
2022/05/05 00:48:27;;;;;;;16.77;14.90;;;10.50;99.90;;;;;;4937239;29;20420;-72
2022/05/05 00:50:54;;;;;;;21.80;16.73;;;10.50;99.90;;;;;;4936645;29;20424;-72
2022/05/05 00:53:20;;;;;;;19.00;16.47;;;10.50;99.90;;;;;;4936946;29;20660;-71
2022/05/05 00:55:46;;;;;;;16.93;15.23;;;10.40;99.90;;;;;;4936845;29;21056;-72
2022/05/05 00:58:14;;;;;;;16.50;14.80;;;10.40;99.90;;;;;;4937314;29;20419;-72
2022/05/05 02:31:16;;;;;;;15.83;14.13;;;10.30;99.90;;;;;;5747329;23;21021;-69
2022/05/05 02:33:42;;;;;;;14.20;12.73;;;10.40;99.90;;;;;;4961400;28;20429;-70
2022/05/05 02:38:52;;;;;;;15.80;14.10;;;10.30;99.90;;;;;;4957542;28;20219;-72
2022/05/05 02:41:17;;;;;;;16.80;14.20;;;10.20;99.90;;;;;;4953984;28;20470;-72
2022/05/05 02:43:43;;;;;;;17.60;13.63;;;10.20;99.90;;;;;;4954035;28;20191;-72
2022/05/05 02:46:08;;;;;;;13.33;11.53;;;10.10;99.90;;;;;;4954049;28;20255;-72
2022/05/05 02:48:35;;;;;;;14.30;12.77;;;10.10;99.90;;;;;;4954061;28;20176;-72
2022/05/05 02:51:01;;;;;;;13.97;12.50;;;10.00;99.90;;;;;;4953668;28;20282;-73
2022/05/05 02:56:11;;;;;;;18.33;13.83;;;9.90;99.90;;;;;;4953929;29;20217;-72
2022/05/05 02:58:37;;;;;;;14.57;12.67;;;9.90;99.90;;;;;;4953542;28;20481;-71
2022/05/05 03:01:03;;;;;;;14.37;12.47;;;9.80;99.90;;;;;;4953794;28;21054;-72
2022/05/05 03:03:28;;;;;;;12.53;11.30;;;9.80;99.90;;;;;;4953688;28;20570;-72
2022/05/05 03:05:54;;;;;;;12.27;11.03;;;9.70;99.90;;;;;;4953889;28;20182;-74
2022/05/05 03:08:19;;;;;;;12.97;11.57;;;9.70;99.90;;;;;;4953859;28;20180;-73
2022/05/05 03:10:45;;;;;;;13.20;10.83;;;9.70;99.90;;;;;;4953497;28;20179;-73
2022/05/05 03:13:10;;;;;;;13.03;11.63;;;9.70;99.90;;;;;;4953956;28;20267;-73
2022/05/05 03:15:36;;;;;;;13.27;11.50;;;9.60;99.90;;;;;;4953644;28;20198;-73
2022/05/05 03:18:01;;;;;;;14.93;11.00;;;9.60;99.90;;;;;;4953606;28;20247;-72
2022/05/05 03:20:28;;;;;;;13.53;11.60;;;9.60;99.90;;;;;;4953448;28;20211;-72
2022/05/05 03:22:53;;;;;;;12.10;10.63;;;9.60;99.90;;;;;;4953139;28;20202;-72
2022/05/05 03:25:19;;;;;;;12.60;11.03;;;9.60;99.90;;;;;;4953607;28;20823;-72
2022/05/05 03:27:44;;;;;;;15.70;11.57;;;9.60;99.90;;;;;;4953267;28;20216;-73
2022/05/05 03:30:10;;;;;;;13.57;11.73;;;9.60;99.90;;;;;;4953531;28;20191;-72
2022/05/05 03:32:36;;;;;;;13.40;11.03;;;9.60;99.90;;;;;;4952744;28;20255;-73
2022/05/05 03:35:01;;;;;;;13.33;11.97;;;9.60;99.90;;;;;;4953466;28;20254;-72
2022/05/05 03:37:30;;;;;;;12.60;11.10;;;9.60;99.90;;;;;;4953247;28;20184;-72
2022/05/05 03:39:59;;;;;;;13.20;11.50;;;9.60;99.90;;;;;;4953352;28;20212;-73
2022/05/05 03:42:25;;;;;;;16.20;14.43;;;9.50;99.90;;;;;;4952934;28;20447;-73
2022/05/05 03:44:51;;;;;;;12.80;11.50;;;9.60;99.90;;;;;;4958424;28;20482;-73
2022/05/05 03:47:16;;;;;;;13.37;11.70;;;9.60;99.90;;;;;;4959804;28;20418;-74
2022/05/05 03:49:43;;;;;;;14.60;12.57;;;9.60;99.90;;;;;;4959334;28;20694;-72
2022/05/05 03:52:08;;;;;;;16.73;12.10;;;9.60;99.90;;;;;;4959337;28;20554;-73
2022/05/05 03:54:34;;;;;;;13.40;11.97;;;9.60;99.90;;;;;;4959632;28;20468;-73
2022/05/05 03:56:59;;;;;;;13.97;12.20;;;9.60;99.90;;;;;;4959678;28;20272;-73
2022/05/05 03:59:25;;;;;;;14.50;12.07;;;9.60;99.90;;;;;;4959626;28;20249;-71
2022/05/05 04:01:51;;;;;;;16.60;12.10;;;9.70;99.90;;;;;;4959739;28;20226;-73
2022/05/05 04:04:17;;;;;;;14.63;11.70;;;9.70;99.90;;;;;;4959639;28;20244;-71
2022/05/05 04:06:43;;;;;;;13.23;11.83;;;9.80;99.90;;;;;;4960019;28;20421;-72
2022/05/05 04:09:10;;;;;;;15.20;11.57;;;9.80;99.90;;;;;;4959608;28;20425;-71
2022/05/05 04:11:36;;;;;;;14.40;12.37;;;9.90;99.90;;;;;;4959755;28;21010;-71
2022/05/05 04:14:03;;;;;;;14.90;11.80;;;9.90;99.90;;;;;;4959965;28;20418;-71
2022/05/05 04:16:31;;;;;;;15.67;12.40;;;10.00;99.90;;;;;;4960024;28;20548;-72
2022/05/05 04:19:04;;;;;;;13.87;12.43;;;10.00;99.90;;;;;;4959588;28;20420;-71
2022/05/05 04:21:30;;;;;;;13.27;12.07;;;10.00;99.90;;;;;;4959195;28;20435;-72
2022/05/05 04:23:56;;;;;;;20.70;13.17;;;10.10;99.90;;;;;;4959431;28;20882;-70
2022/05/05 04:26:23;;;;;;;13.93;12.47;;;10.10;99.90;;;;;;4959416;28;20398;-71
2022/05/05 04:28:50;;;;;;;16.37;12.67;;;10.10;99.90;;;;;;4959309;28;20180;-71
2022/05/05 04:31:18;;;;;;;12.77;11.47;;;10.20;99.90;;;;;;4957783;28;20605;-70
2022/05/05 04:33:44;;;;;;;15.47;12.30;;;10.20;99.90;;;;;;4959154;28;20526;-71
2022/05/05 04:36:10;;;;;;;13.87;11.40;;;10.30;99.90;;;;;;4959524;28;20497;-71
2022/05/05 04:38:36;;;;;;;17.03;12.40;;;10.30;99.90;;;;;;4959228;28;20936;-70
2022/05/05 04:41:02;;;;;;;13.57;12.20;;;10.40;99.90;;;;;;4958838;28;20481;-71
2022/05/05 04:43:28;;;;;;;14.07;12.63;;;10.40;99.90;;;;;;4959280;28;20603;-70
2022/05/05 04:45:53;;;;;;;13.00;11.63;;;10.40;99.90;;;;;;4959205;28;20420;-71
2022/05/05 04:48:19;;;;;;;13.40;11.87;;;10.50;99.90;;;;;;4959242;28;20266;-72
2022/05/05 04:50:44;;;;;;;13.17;11.80;;;10.50;99.90;;;;;;4958776;28;20265;-72
2022/05/05 04:53:10;;;;;;;16.47;13.10;;;10.50;99.90;;;;;;4959235;28;20632;-72
2022/05/05 04:55:35;;;;;;;13.00;11.60;;;10.50;99.90;;;;;;4956544;28;20237;-71
2022/05/05 04:58:01;;;;;;;14.70;12.30;;;10.60;99.90;;;;;;4955203;28;20219;-72
2022/05/05 05:00:26;;;;;;;12.80;11.50;;;10.60;99.90;;;;;;4955738;28;20245;-70
2022/05/05 05:02:52;;;;;;;14.73;12.33;;;10.60;99.90;;;;;;4955399;28;20204;-71
2022/05/05 05:05:17;;;;;;;16.53;12.30;;;10.70;99.90;;;;;;4955853;28;20194;-71
2022/05/05 05:07:44;;;;;;;15.57;13.00;;;10.70;99.90;;;;;;4955592;28;20188;-71
2022/05/05 05:10:10;;;;;;;17.40;11.93;;;10.70;99.90;;;;;;4955787;28;20183;-70
2022/05/05 05:12:35;;;;;;;16.00;13.10;;;10.80;99.90;;;;;;4955263;28;20443;-71
2022/05/05 05:15:01;;;;;;;15.33;12.83;;;10.80;99.90;;;;;;4955942;28;20440;-71
2022/05/05 05:17:26;;;;;;;15.60;13.27;;;10.90;99.90;;;;;;4955492;28;20185;-71
2022/05/05 05:19:52;;;;;;;15.50;13.03;;;10.90;99.90;;;;;;4955482;28;20227;-70
2022/05/05 05:22:17;;;;;;;15.13;13.03;;;11.00;99.90;;;;;;4955145;28;20639;-70
2022/05/05 05:24:43;;;;;;;14.90;12.43;;;11.20;99.90;;;;;;4955550;28;20581;-71
2022/05/05 05:27:09;;;;;;;15.20;12.83;;;11.20;99.90;;;;;;4955493;28;20188;-70
2022/05/05 05:29:35;;;;;;;14.93;13.37;;;11.20;99.90;;;;;;4955265;28;20581;-70
2022/05/05 05:32:00;;;;;;;14.67;12.90;;;11.30;99.90;;;;;;4954981;28;20466;-71
2022/05/05 05:34:26;;;;;;;16.77;14.00;;;11.30;99.90;;;;;;4955353;28;20672;-71
2022/05/05 05:36:51;;;;;;;15.40;13.20;;;11.30;99.90;;;;;;4955247;28;20249;-70
2022/05/05 05:39:17;;;;;;;17.07;13.63;;;11.40;99.90;;;;;;4955131;28;20276;-71
2022/05/05 05:41:43;;;;;;;16.80;13.70;;;11.40;99.90;;;;;;4954844;28;20290;-70
2022/05/05 05:44:09;;;;;;;16.13;14.60;;;11.50;99.90;;;;;;4955118;28;20467;-70
2022/05/05 05:46:34;;;;;;;17.90;15.17;;;11.50;99.90;;;;;;4955029;28;20419;-70
2022/05/05 05:49:00;;;;;;;20.80;14.63;;;11.50;99.90;;;;;;4955103;28;20199;-69
2022/05/05 05:51:25;;;;;;;20.77;15.47;;;11.50;99.90;;;;;;4954754;28;20216;-69
2022/05/05 05:53:51;;;;;;;17.60;15.77;;;11.60;99.90;;;;;;4954732;28;20676;-70
2022/05/05 05:56:18;;;;;;;19.80;15.97;;;11.70;99.90;;;;;;4954985;28;20283;-70
2022/05/05 05:58:44;;;;;;;24.93;20.10;;;11.70;99.90;;;;;;4954770;28;20183;-70
2022/05/05 06:01:09;;;;;;;19.80;16.13;;;11.70;99.90;;;;;;4954427;28;20603;-71
2022/05/05 06:03:53;;;;;;;19.07;17.03;;;11.80;99.90;;;;;;4954900;28;20180;-72
2022/05/05 06:06:22;;;;;;;18.70;16.33;;;11.80;99.90;;;;;;4954943;28;20652;-72
2022/05/05 06:08:49;;;;;;;21.03;14.83;;;11.90;99.90;;;;;;4954570;28;20900;-72
2022/05/05 06:11:17;;;;;;;20.07;15.93;;;12.00;99.90;;;;;;4954405;28;20439;-72
2022/05/05 06:13:43;;;;;;;23.00;16.10;;;12.00;99.90;;;;;;4955746;28;20426;-72
2022/05/05 06:16:10;;;;;;;17.10;15.30;;;12.10;99.90;;;;;;4953280;28;20436;-73
2022/05/05 06:18:39;;;;;;;18.00;16.10;;;12.20;99.90;;;;;;4954452;28;20420;-72
2022/05/05 06:21:05;;;;;;;19.40;16.10;;;12.30;99.90;;;;;;4954067;28;20555;-72
2022/05/05 06:23:30;;;;;;;19.73;15.00;;;12.30;99.90;;;;;;4954419;28;20491;-72
2022/05/05 06:25:56;;;;;;;19.37;15.27;;;12.40;99.90;;;;;;4954390;28;20431;-72
2022/05/05 06:28:22;;;;;;;18.40;16.40;;;12.40;99.90;;;;;;4954382;28;20185;-73
2022/05/05 06:30:47;;;;;;;17.87;15.30;;;12.40;99.90;;;;;;4953592;28;20665;-73
2022/05/05 06:33:13;;;;;;;24.50;16.07;;;12.40;99.90;;;;;;4954447;28;20196;-72
2022/05/05 06:35:38;;;;;;;21.37;16.17;;;12.40;99.90;;;;;;4954210;28;20631;-72
2022/05/05 06:38:04;;;;;;;16.47;14.77;;;12.50;99.90;;;;;;4943114;28;20689;-73
2022/05/05 06:40:29;;;;;;;17.90;14.57;;;12.50;99.90;;;;;;4940929;29;20282;-70
2022/05/05 06:42:56;;;;;;;16.63;14.73;;;12.60;99.90;;;;;;4934481;28;20212;-71
2022/05/05 06:45:22;;;;;;;16.27;14.57;;;12.60;99.90;;;;;;4944847;28;20480;-72
2022/05/05 06:47:48;;;;;;;16.27;14.57;;;12.70;99.90;;;;;;4939244;28;20420;-73
2022/05/05 06:50:16;;;;;;;16.10;13.03;;;12.80;99.90;;;;;;4942284;28;20504;-73
2022/05/05 06:52:42;;;;;;;23.57;11.97;;;12.90;99.90;;;;;;4940659;29;20433;-73
2022/05/05 06:55:08;;;;;;;13.13;11.73;;;13.00;99.90;;;;;;4941052;29;20537;-73
2022/05/05 06:57:34;;;;;;;12.43;11.20;;;13.00;99.90;;;;;;4947749;28;20181;-71
2022/05/05 06:59:59;;;;;;;16.77;12.23;;;13.00;99.90;;;;;;4946636;28;20487;-72
2022/05/05 07:02:25;;;;;;;13.10;11.70;;;13.00;99.90;;;;;;4943392;28;20200;-74
2022/05/05 07:07:34;;;;;;;12.00;10.90;;;13.20;99.90;;;;;;4939963;29;20203;-72
2022/05/05 07:12:43;;;;;;;18.10;12.13;;;13.30;99.90;;;;;;4942727;29;20215;-71
2022/05/05 07:15:09;;;;;;;13.67;12.27;;;13.30;99.90;;;;;;4942020;29;20426;-73
2022/05/05 07:17:35;;;;;;;14.20;11.67;;;13.30;99.90;;;;;;4943522;28;20180;-73
2022/05/05 07:20:00;;;;;;;17.70;12.73;;;13.40;99.90;;;;;;4938300;29;20699;-73
2022/05/05 07:22:26;;;;;;;18.00;11.67;;;13.40;99.90;;;;;;4942263;28;20590;-75
2022/05/05 07:24:51;;;;;;;12.83;11.43;;;13.30;99.90;;;;;;4944284;28;20181;-73
2022/05/05 07:27:17;;;;;;;15.63;12.63;;;13.40;99.90;;;;;;4948628;28;20704;-69
2022/05/05 07:29:42;;;;;;;13.60;12.23;;;13.50;99.90;;;;;;4939006;29;20244;-71
2022/05/05 07:32:09;;;;;;;16.43;11.40;;;13.70;99.90;;;;;;4939785;28;20354;-71
2022/05/05 07:34:34;;;;;;;12.50;11.20;;;13.90;99.90;;;;;;4944271;28;20189;-71
2022/05/05 07:37:01;;;;;;;12.53;11.20;;;13.90;99.90;;;;;;4940964;29;20988;-71
2022/05/05 07:39:26;;;;;;;13.57;11.30;;;14.10;99.90;;;;;;4932480;28;20197;-72
2022/05/05 07:41:52;;;;;;;11.10;10.00;;;14.10;99.90;;;;;;4935169;28;20456;-72
2022/05/05 07:44:17;;;;;;;11.90;10.87;;;14.20;99.90;;;;;;4933814;29;20189;-72
2022/05/05 07:46:43;;;;;;;12.73;10.33;;;14.30;99.90;;;;;;4937911;29;20189;-73
2022/05/05 07:49:09;;;;;;;12.10;10.63;;;14.30;99.90;;;;;;4930045;29;20268;-71
2022/05/05 07:51:35;;;;;;;17.60;12.17;;;14.40;99.90;;;;;;4935343;29;20813;-71
2022/05/05 07:56:45;;;;;;;13.40;12.00;;;14.40;99.90;;;;;;4938454;29;20862;-71
2022/05/05 07:59:11;;;;;;;16.97;12.10;;;14.50;99.90;;;;;;4939131;29;20447;-72
2022/05/05 08:01:37;;;;;;;14.93;11.80;;;14.50;99.90;;;;;;4941549;29;20583;-72
2022/05/05 08:04:03;;;;;;;18.87;12.13;;;14.50;99.90;;;;;;4942273;28;20441;-70
2022/05/05 08:06:28;;;;;;;16.37;13.60;;;14.50;99.90;;;;;;4935495;28;20169;-71
2022/05/05 08:08:54;;;;;;;13.80;11.97;;;14.40;99.90;;;;;;4950845;28;20243;-72
2022/05/05 08:11:19;;;;;;;12.83;11.50;;;14.40;99.90;;;;;;4940117;28;20213;-72
2022/05/05 08:13:45;;;;;;;16.40;13.87;;;14.30;99.90;;;;;;4935278;29;20607;-72
2022/05/05 08:16:11;;;;;;;15.20;13.50;;;14.30;99.90;;;;;;4928780;29;20224;-70
2022/05/05 08:18:38;;;;;;;16.30;14.60;;;14.20;99.90;;;;;;4942019;29;20180;-70
2022/05/05 08:21:10;;;;;;;19.40;13.80;;;14.20;99.90;;;;;;4939995;28;20213;-72
2022/05/05 08:23:35;;;;;;;19.60;14.10;;;14.20;99.90;;;;;;4937560;29;20548;-71
2022/05/05 08:28:45;;;;;;;20.27;13.90;;;14.00;99.90;;;;;;4940263;29;20680;-72
2022/05/05 08:31:11;;;;;;;17.37;15.57;;;14.10;99.90;;;;;;4941297;28;20461;-72
2022/05/05 08:33:38;;;;;;;17.93;14.00;;;14.10;99.90;;;;;;4944154;28;20221;-70
2022/05/05 08:36:05;;;;;;;16.50;14.10;;;14.30;99.90;;;;;;4943732;28;20436;-69
2022/05/05 08:38:31;;;;;;;17.70;15.00;;;14.60;99.90;;;;;;4945750;29;20502;-69
2022/05/05 08:40:57;;;;;;;18.40;15.20;;;15.00;99.90;;;;;;4943474;28;20476;-69
2022/05/05 08:43:23;;;;;;;17.63;14.70;;;15.30;99.90;;;;;;4944661;29;20937;-71
2022/05/05 08:45:50;;;;;;;17.80;15.47;;;15.30;99.90;;;;;;4943816;29;20425;-70
2022/05/05 08:48:17;;;;;;;16.50;14.77;;;15.20;99.90;;;;;;4943745;29;20201;-70
2022/05/05 08:50:46;;;;;;;17.87;15.97;;;15.00;99.90;;;;;;4944955;28;20765;-70
2022/05/05 08:53:14;;;;;;;17.17;15.07;;;14.90;99.90;;;;;;4943921;29;20463;-68
2022/05/05 08:55:40;;;;;;;17.50;15.27;;;15.00;99.90;;;;;;4943383;29;20506;-69
2022/05/05 08:58:06;;;;;;;17.90;15.47;;;15.10;99.90;;;;;;4946981;29;20490;-70
2022/05/05 09:00:32;;;;;;;19.20;15.13;;;15.10;99.90;;;;;;4938371;29;20518;-68
2022/05/05 09:03:04;;;;;;;17.03;15.03;;;14.90;99.90;;;;;;4944275;28;20443;-70
2022/05/05 09:05:45;;;;;;;17.77;15.87;;;15.00;99.90;;;;;;4943496;28;20185;-71
2022/05/05 09:08:12;;;;;;;21.10;18.80;;;15.10;99.90;;;;;;4940432;29;20968;-73
2022/05/05 09:10:45;;;;;;;22.10;16.33;;;15.00;99.90;;;;;;4944112;28;20455;-72
2022/05/05 09:13:11;;;;;;;18.20;16.30;;;15.00;99.90;;;;;;4943295;29;20414;-73
2022/05/05 09:15:40;;;;;;;19.50;16.00;;;15.10;99.90;;;;;;4944115;28;20413;-72
2022/05/05 09:18:13;;;;;;;21.97;15.23;;;15.20;99.90;;;;;;4934293;29;20932;-73
2022/05/05 09:20:41;;;;;;;20.20;16.53;;;15.50;99.90;;;;;;4944020;28;20471;-74
2022/05/05 09:23:06;;;;;;;23.37;15.77;;;15.70;99.90;;;;;;4938729;29;20507;-73
2022/05/05 09:25:47;;;;;;;18.70;16.60;;;15.80;99.90;;;;;;4946037;29;20500;-73
2022/05/05 09:28:27;;;;;;;20.20;17.67;;;15.90;99.90;;;;;;4941571;29;20177;-73
2022/05/05 09:30:54;;;;;;;16.73;14.60;;;15.90;99.90;;;;;;4945019;28;20420;-73
2022/05/05 09:33:36;;;;;;;20.23;15.90;;;15.90;99.90;;;;;;4942105;29;20433;-74
2022/05/05 09:36:09;;;;;;;23.30;17.50;;;15.80;99.90;;;;;;4945318;29;20439;-73
2022/05/05 09:38:51;;;;;;;22.90;18.30;;;15.70;99.90;;;;;;4934161;29;20441;-73
2022/05/05 09:41:25;;;;;;;20.53;18.43;;;15.70;99.90;;;;;;4942932;29;20499;-73
2022/05/05 09:43:55;;;;;;;20.37;18.27;;;15.70;99.90;;;;;;4942074;29;20489;-72
2022/05/05 09:46:24;;;;;;;28.07;18.50;;;15.60;99.90;;;;;;4943095;29;20425;-73
2022/05/05 09:48:50;;;;;;;19.97;17.93;;;15.70;99.90;;;;;;4941624;29;20426;-74
2022/05/05 09:51:16;;;;;;;20.67;18.47;;;15.70;99.90;;;;;;4943455;29;21037;-73
2022/05/05 09:59:29;;;;;;;20.07;17.47;;;15.80;99.90;;;;;;4940724;29;21024;-72
2022/05/05 10:02:04;;;;;;;23.60;18.20;;;15.80;99.90;;;;;;4945176;28;20522;-72
2022/05/05 10:04:36;;;;;;;19.97;17.87;;;16.00;99.90;;;;;;4951438;28;20755;-71
2022/05/05 10:07:02;;;;;;;24.40;18.50;;;16.10;99.90;;;;;;4916974;29;20425;-72
2022/05/05 10:09:28;;;;;;;21.67;19.53;;;16.20;99.90;;;;;;4942642;29;20574;-72
2022/05/05 10:11:54;;;;;;;23.87;18.33;;;16.20;99.90;;;;;;4943193;28;21021;-72
2022/05/05 10:14:20;;;;;;;21.97;17.47;;;16.30;99.90;;;;;;4927213;29;20422;-71
2022/05/05 10:16:46;;;;;;;23.23;18.50;;;16.40;99.90;;;;;;4943670;28;20421;-72
2022/05/05 10:19:12;;;;;;;21.07;18.00;;;16.50;99.90;;;;;;4933382;29;20177;-71
2022/05/05 10:21:56;;;;;;;21.53;17.87;;;16.50;99.90;;;;;;4933133;29;20213;-72
2022/05/05 10:24:28;;;;;;;20.60;18.40;;;16.60;99.90;;;;;;4942961;29;20176;-72
2022/05/05 10:26:59;;;;;;;21.73;18.17;;;16.60;99.90;;;;;;4933630;29;20486;-72
2022/05/05 10:29:30;;;;;;;21.37;17.60;;;16.70;99.90;;;;;;4942588;29;20420;-72
2022/05/05 10:32:06;;;;;;;18.97;17.07;;;16.70;99.90;;;;;;4957838;28;20479;-73
2022/05/05 10:34:32;;;;;;;22.13;18.07;;;16.90;99.90;;;;;;4943133;29;20408;-72
2022/05/05 10:37:03;;;;;;;20.83;18.30;;;16.90;99.90;;;;;;4949405;28;20429;-73
2022/05/05 10:40:04;;;;;;;19.80;17.17;;;17.00;99.90;;;;;;4939839;29;20787;-73
2022/05/05 10:42:40;;;;;;;21.97;18.37;;;16.90;99.90;;;;;;4939653;28;20857;-73
2022/05/05 10:45:15;;;;;;;21.40;17.03;;;16.90;99.90;;;;;;4940089;29;20530;-72
2022/05/05 10:47:50;;;;;;;19.43;17.33;;;16.80;99.90;;;;;;4955458;28;20428;-73
2022/05/05 10:50:53;;;;;;;20.33;18.20;;;16.80;99.90;;;;;;4955145;28;20940;-72
2022/05/05 10:53:40;;;;;;;22.83;18.30;;;16.80;99.90;;;;;;4942064;28;20917;-72
2022/05/05 10:56:28;;;;;;;19.27;17.40;;;16.90;99.90;;;;;;4941736;29;20428;-73
2022/05/05 10:59:02;;;;;;;21.97;18.20;;;16.90;99.90;;;;;;4948855;28;20425;-72
2022/05/05 11:01:30;;;;;;;20.50;18.50;;;17.00;99.90;;;;;;4940903;28;20483;-73
2022/05/05 11:04:17;;;;;;;24.30;18.60;;;17.00;99.90;;;;;;4948681;29;20471;-72
2022/05/05 11:06:44;;;;;;;24.43;18.83;;;17.00;99.90;;;;;;4942373;29;20439;-73
2022/05/05 11:09:28;;;;;;;20.80;18.67;;;17.00;99.90;;;;;;4942327;29;20428;-73
2022/05/05 11:12:16;;;;;;;19.93;17.80;;;17.00;99.90;;;;;;4941660;29;20508;-73
2022/05/05 11:21:35;;;;;;;24.53;20.13;;;16.80;99.90;;;;;;4944589;28;21062;-72
2022/05/05 11:24:01;;;;;;;24.93;20.40;;;16.80;99.90;;;;;;4940958;29;20431;-72
2022/05/05 11:26:27;;;;;;;28.40;19.73;;;16.70;99.90;;;;;;4940969;29;20421;-72
2022/05/05 11:28:53;;;;;;;27.37;19.57;;;16.70;99.90;;;;;;4932629;29;20556;-72
2022/05/05 11:31:25;;;;;;;23.30;20.73;;;16.60;99.90;;;;;;4940703;28;20212;-72
2022/05/05 11:33:53;;;;;;;31.30;21.17;;;16.50;99.90;;;;;;4940076;29;20528;-72
2022/05/05 11:36:19;;;;;;;25.83;20.63;;;16.30;99.90;;;;;;4932549;29;20936;-72
2022/05/05 11:38:45;;;;;;;28.00;22.93;;;16.10;99.90;;;;;;4931800;29;20424;-72
2022/05/05 11:41:10;;;;;;;26.93;21.43;;;16.00;99.90;;;;;;4941689;28;21058;-72
2022/05/05 11:46:21;;;;;;;28.27;21.90;;;15.80;99.90;;;;;;4942666;29;20321;-72
2022/05/05 11:48:57;;;;;;;29.23;23.30;;;15.70;99.90;;;;;;4941388;29;20470;-72
2022/05/05 11:51:33;;;;;;;33.53;24.80;;;15.70;99.90;;;;;;4941585;28;21403;-72
2022/05/05 11:54:08;;;;;;;29.17;24.97;;;15.50;99.90;;;;;;4941687;29;20429;-72
2022/05/05 11:56:35;;;;;;;33.77;25.90;;;15.40;99.90;;;;;;4942136;29;20514;-72
2022/05/05 12:02:24;;;;;;;36.20;28.57;;;15.30;99.90;;;;;;4939632;28;20439;-72
2022/05/05 12:04:51;;;;;;;37.73;28.60;;;15.10;99.90;;;;;;4941904;29;20416;-72
2022/05/05 12:07:22;;;;;;;31.37;27.57;;;15.00;99.90;;;;;;4937100;29;20482;-74
2022/05/05 12:09:49;;;;;;;37.23;29.87;;;15.00;99.90;;;;;;4937080;29;20459;-73
2022/05/05 12:12:18;;;;;;;39.93;31.67;;;15.00;99.90;;;;;;4944983;29;20517;-73
2022/05/05 12:14:49;;;;;;;38.90;29.93;;;14.90;99.90;;;;;;4944735;29;20416;-73
2022/05/05 12:17:26;;;;;;;40.93;31.63;;;14.80;99.90;;;;;;4945292;29;20471;-73
2022/05/05 12:19:55;;;;;;;43.70;31.37;;;14.80;99.90;;;;;;4943700;29;20468;-71
2022/05/05 12:22:29;;;;;;;40.07;30.37;;;14.80;99.90;;;;;;4936466;29;20457;-72
2022/05/05 12:25:00;;;;;;;44.03;32.80;;;14.80;99.90;;;;;;4944605;29;20424;-72
2022/05/05 12:27:26;;;;;;;42.33;31.77;;;14.90;99.90;;;;;;4951271;29;20511;-74
2022/05/05 12:29:52;;;;;;;46.83;31.97;;;14.90;99.90;;;;;;4944458;29;20885;-74
2022/05/05 12:32:19;;;;;;;34.97;28.13;;;14.90;99.90;;;;;;4944334;29;20243;-74
2022/05/05 12:34:46;;;;;;;42.73;29.03;;;14.90;99.90;;;;;;4944006;29;20354;-74
2022/05/05 12:37:11;;;;;;;48.63;31.90;;;15.00;99.90;;;;;;4944242;29;20957;-74
2022/05/05 12:40:01;;;;;;;37.97;28.50;;;15.00;99.90;;;;;;4945037;29;20433;-74
2022/05/05 12:42:46;;;;;;;38.80;29.33;;;15.00;99.90;;;;;;4943764;29;20725;-74
2022/05/05 12:45:26;;;;;;;37.30;29.57;;;15.10;99.90;;;;;;4959443;28;20473;-73
2022/05/05 12:47:54;;;;;;;44.17;28.70;;;15.20;99.90;;;;;;4943267;29;20427;-74
2022/05/05 12:50:30;;;;;;;47.03;30.10;;;15.20;99.90;;;;;;4944517;28;20516;-74
2022/05/05 13:01:23;;;;;;;36.53;28.57;;;15.50;99.90;;;;;;4944744;29;20520;-73
2022/05/05 13:03:49;;;;;;;35.10;26.80;;;15.60;99.90;;;;;;4943302;29;20430;-74
2022/05/05 13:06:14;;;;;;;37.00;27.83;;;15.70;99.90;;;;;;4944503;29;20569;-72
2022/05/05 13:08:40;;;;;;;34.43;27.07;;;15.60;99.90;;;;;;4944911;29;20515;-73
2022/05/05 13:11:06;;;;;;;33.90;25.80;;;15.70;99.90;;;;;;4945153;28;20569;-74
2022/05/05 13:13:31;;;;;;;38.20;26.40;;;15.90;99.90;;;;;;4944593;28;20177;-73
2022/05/05 13:15:57;;;;;;;35.67;25.73;;;16.00;99.90;;;;;;4943957;29;20194;-74
2022/05/05 13:18:23;;;;;;;35.77;26.00;;;15.90;99.90;;;;;;4945510;29;21069;-75
2022/05/05 13:20:48;;;;;;;35.00;26.40;;;15.90;99.90;;;;;;4945253;28;20214;-73
2022/05/05 13:23:14;;;;;;;35.27;26.00;;;16.10;99.90;;;;;;4944746;29;20177;-73
2022/05/05 13:25:39;;;;;;;38.83;28.00;;;16.00;99.90;;;;;;4944135;29;20186;-74
2022/05/05 13:28:05;;;;;;;36.07;27.10;;;16.10;99.90;;;;;;4944243;29;20675;-73
2022/05/05 13:30:31;;;;;;;36.77;26.93;;;16.10;99.90;;;;;;4943812;29;20181;-73
2022/05/05 13:32:56;;;;;;;32.97;25.63;;;16.20;99.90;;;;;;4942208;29;20220;-73
2022/05/05 13:35:22;;;;;;;40.73;28.97;;;16.10;99.90;;;;;;4941402;29;20181;-73
2022/05/05 13:37:47;;;;;;;33.43;25.93;;;16.30;99.90;;;;;;4941978;29;20747;-73
2022/05/05 13:40:13;;;;;;;33.30;27.83;;;16.40;99.90;;;;;;4941901;29;20220;-74
2022/05/05 13:42:39;;;;;;;36.67;27.80;;;16.50;99.90;;;;;;4943800;28;20348;-73
2022/05/05 13:45:05;;;;;;;35.23;26.20;;;16.30;99.90;;;;;;4942379;29;20173;-73
2022/05/05 13:47:30;;;;;;;36.93;26.23;;;16.30;99.90;;;;;;4941582;29;20218;-73
2022/05/05 13:49:56;;;;;;;32.70;26.77;;;16.50;99.90;;;;;;4935154;29;20817;-73
2022/05/05 13:52:22;;;;;;;41.03;26.43;;;16.50;99.90;;;;;;4935225;29;20205;-74
2022/05/05 13:54:47;;;;;;;30.70;26.80;;;16.40;99.90;;;;;;4943670;29;20188;-72
2022/05/05 13:57:13;;;;;;;32.97;25.77;;;16.40;99.90;;;;;;4944245;29;20185;-73
2022/05/05 13:59:43;;;;;;;35.07;26.83;;;16.40;99.90;;;;;;4943825;29;20887;-74
2022/05/05 14:02:08;;;;;;;36.53;24.80;;;16.50;99.90;;;;;;4942514;28;20476;-74
2022/05/05 14:04:34;;;;;;;34.63;25.37;;;16.50;99.90;;;;;;4933514;29;20424;-73
2022/05/05 14:07:02;;;;;;;32.30;25.27;;;16.40;99.90;;;;;;4934278;29;20184;-73
2022/05/05 14:12:12;;;;;;;27.60;23.87;;;16.40;99.90;;;;;;4943581;28;20511;-74
2022/05/05 14:14:38;;;;;;;32.07;25.77;;;16.30;99.90;;;;;;4949573;28;20459;-73
2022/05/05 14:17:08;;;;;;;31.03;25.00;;;16.30;99.90;;;;;;4949663;28;20698;-72
2022/05/05 14:19:34;;;;;;;32.67;25.30;;;16.20;99.90;;;;;;4933118;29;20417;-72
2022/05/05 14:22:00;;;;;;;31.43;26.13;;;16.30;99.90;;;;;;4943094;29;20440;-73
2022/05/05 14:24:29;;;;;;;30.97;27.50;;;16.50;99.90;;;;;;4935085;29;20649;-73
2022/05/05 14:26:56;;;;;;;34.40;26.33;;;16.40;99.90;;;;;;4943763;29;20428;-72
2022/05/05 14:29:22;;;;;;;30.37;25.63;;;16.50;99.90;;;;;;4943556;28;20418;-72
2022/05/05 14:31:48;;;;;;;33.80;25.40;;;16.60;99.90;;;;;;4940707;28;20512;-73
2022/05/05 14:34:17;;;;;;;32.43;25.73;;;16.40;99.90;;;;;;4947870;28;21014;-73
2022/05/05 14:36:42;;;;;;;32.50;25.60;;;16.40;99.90;;;;;;4932359;29;20178;-73
2022/05/05 14:39:09;;;;;;;30.57;26.00;;;16.50;99.90;;;;;;4932373;29;20415;-73
2022/05/05 14:41:35;;;;;;;31.63;25.70;;;16.50;99.90;;;;;;4932143;29;20590;-72
2022/05/05 14:44:01;;;;;;;31.23;23.70;;;16.50;99.90;;;;;;4941793;28;20422;-72
2022/05/05 14:46:28;;;;;;;30.20;23.70;;;16.40;99.90;;;;;;4940645;29;20193;-72
2022/05/05 14:48:54;;;;;;;32.17;25.97;;;16.40;99.90;;;;;;4941877;29;20521;-73
2022/05/05 14:51:19;;;;;;;31.60;23.47;;;16.40;99.90;;;;;;4941316;29;20533;-72
2022/05/05 14:53:45;;;;;;;36.70;25.50;;;16.60;99.90;;;;;;4917404;29;20244;-73